createdAt,value
2017-12-02T00:00:37.676Z,1036.91
2017-12-02T00:01:37.664Z,1036.97
2017-12-02T00:02:37.656Z,1036.98
2017-12-02T00:03:37.640Z,1036.97
2017-12-02T00:04:37.624Z,1036.96
2017-12-02T00:05:37.614Z,1037.03
2017-12-02T00:06:37.604Z,1037.02
2017-12-02T00:07:37.587Z,1037.02
2017-12-02T00:08:37.575Z,1037.03
2017-12-02T00:09:37.560Z,1037.02
2017-12-02T00:10:37.549Z,1037.01
2017-12-02T00:11:37.533Z,1036.99
2017-12-02T00:12:37.523Z,1037.04
2017-12-02T00:13:37.508Z,1037.05
2017-12-02T00:14:37.497Z,1037.02
2017-12-02T00:15:37.482Z,1037.07
2017-12-02T00:16:37.472Z,1037.11
2017-12-02T00:17:37.459Z,1037.11
2017-12-02T00:18:37.442Z,1037.15
2017-12-02T00:19:37.431Z,1037.14
2017-12-02T00:20:37.417Z,1037.14
2017-12-02T00:21:37.404Z,1037.09
2017-12-02T00:22:37.393Z,1037.12
2017-12-02T00:23:37.385Z,1037.09
2017-12-02T00:24:37.369Z,1037.1
2017-12-02T00:25:37.352Z,1037.08
2017-12-02T00:26:37.342Z,1037.06
2017-12-02T00:27:37.329Z,1037.06
2017-12-02T00:28:37.316Z,1037.09
2017-12-02T00:29:37.307Z,1037.08
2017-12-02T00:30:37.289Z,1037.1
2017-12-02T00:31:37.279Z,1037.16
2017-12-02T00:32:37.263Z,1037.17
2017-12-02T00:33:37.250Z,1037.18
2017-12-02T00:34:37.240Z,1037.22
2017-12-02T00:35:37.227Z,1037.23
2017-12-02T00:36:37.215Z,1037.18
2017-12-02T00:37:37.197Z,1037.25
2017-12-02T00:38:37.186Z,1037.25
2017-12-02T00:39:37.171Z,1037.26
2017-12-02T00:40:37.158Z,1037.29
2017-12-02T00:41:37.146Z,1037.28
2017-12-02T00:42:37.133Z,1037.27
2017-12-02T00:43:37.122Z,1037.28
2017-12-02T00:44:37.110Z,1037.26
2017-12-02T00:45:37.106Z,1037.24
2017-12-02T00:46:37.082Z,1037.24
2017-12-02T00:47:37.069Z,1037.24
2017-12-02T00:48:37.056Z,1037.26
2017-12-02T00:49:37.045Z,1037.29
2017-12-02T00:50:37.033Z,1037.31
2017-12-02T00:51:37.019Z,1037.3
2017-12-02T00:52:37.004Z,1037.31
2017-12-02T00:53:36.995Z,1037.34
2017-12-02T00:54:36.979Z,1037.35
2017-12-02T00:55:36.970Z,1037.34
2017-12-02T00:56:36.954Z,1037.39
2017-12-02T00:57:36.942Z,1037.44
2017-12-02T00:58:36.926Z,1037.47
2017-12-02T00:59:36.920Z,1037.41
2017-12-02T01:00:36.905Z,1037.44
2017-12-02T01:01:36.886Z,1037.46
2017-12-02T01:02:36.876Z,1037.44
2017-12-02T01:03:36.870Z,1037.52
2017-12-02T01:04:36.851Z,1037.45
2017-12-02T01:05:36.837Z,1037.52
2017-12-02T01:06:36.826Z,1037.51
2017-12-02T01:07:36.812Z,1037.46
2017-12-02T01:08:36.799Z,1037.49
2017-12-02T01:09:36.785Z,1037.49
2017-12-02T01:10:36.771Z,1037.51
2017-12-02T01:11:36.760Z,1037.51
2017-12-02T01:12:36.748Z,1037.5
2017-12-02T01:13:36.734Z,1037.49
2017-12-02T01:14:36.721Z,1037.51
2017-12-02T01:15:36.706Z,1037.55
2017-12-02T01:16:36.695Z,1037.57
2017-12-02T01:17:36.682Z,1037.6
2017-12-02T01:18:36.670Z,1037.65
2017-12-02T01:19:36.657Z,1037.65
2017-12-02T01:20:36.641Z,1037.7
2017-12-02T01:21:36.627Z,1037.7
2017-12-02T01:22:36.614Z,1037.72
2017-12-02T01:23:36.600Z,1037.72
2017-12-02T01:24:36.591Z,1037.73
2017-12-02T01:25:36.575Z,1037.75
2017-12-02T01:26:36.562Z,1037.72
2017-12-02T01:27:36.552Z,1037.7
2017-12-02T01:28:36.539Z,1037.7
2017-12-02T01:29:36.524Z,1037.71
2017-12-02T01:30:36.516Z,1037.68
2017-12-02T01:31:36.498Z,1037.68
2017-12-02T01:32:36.484Z,1037.71
2017-12-02T01:33:36.471Z,1037.67
2017-12-02T01:34:36.460Z,1037.72
2017-12-02T01:35:36.448Z,1037.72
2017-12-02T01:36:36.434Z,1037.71
2017-12-02T01:37:36.421Z,1037.69
2017-12-02T01:38:36.406Z,1037.72
2017-12-02T01:39:36.393Z,1037.65
2017-12-02T01:40:36.384Z,1037.65
2017-12-02T01:41:36.369Z,1037.69
2017-12-02T01:42:36.354Z,1037.69
2017-12-02T01:43:36.341Z,1037.69
2017-12-02T01:44:36.329Z,1037.77
2017-12-02T01:45:36.318Z,1037.74
2017-12-02T01:46:36.306Z,1037.76
2017-12-02T01:47:36.295Z,1037.74
2017-12-02T01:48:36.280Z,1037.79
2017-12-02T01:49:36.268Z,1037.79
2017-12-02T01:50:36.252Z,1037.79
2017-12-02T01:51:36.240Z,1037.79
2017-12-02T01:52:36.227Z,1037.78
2017-12-02T01:53:36.215Z,1037.78
2017-12-02T01:54:36.203Z,1037.78
2017-12-02T01:55:36.194Z,1037.78
2017-12-02T01:56:36.178Z,1037.86
2017-12-02T01:57:36.161Z,1037.82
2017-12-02T01:58:36.150Z,1037.83
2017-12-02T01:59:36.137Z,1037.9
2017-12-02T02:00:36.122Z,1037.92
2017-12-02T02:01:36.112Z,1037.88
2017-12-02T02:02:36.098Z,1037.87
2017-12-02T02:03:36.085Z,1037.89
2017-12-02T02:04:36.075Z,1037.86
2017-12-02T02:05:36.120Z,1037.89
2017-12-02T02:06:36.047Z,1037.89
2017-12-02T02:07:36.037Z,1037.9
2017-12-02T02:08:36.024Z,1037.85
2017-12-02T02:09:36.011Z,1037.91
2017-12-02T02:10:35.995Z,1037.92
2017-12-02T02:11:35.983Z,1037.93
2017-12-02T02:12:35.972Z,1037.9
2017-12-02T02:13:35.960Z,1037.88
2017-12-02T02:14:35.946Z,1037.9
2017-12-02T02:15:35.932Z,1037.93
2017-12-02T02:16:35.922Z,1037.95
2017-12-02T02:17:35.908Z,1037.99
2017-12-02T02:18:35.895Z,1038.03
2017-12-02T02:19:35.879Z,1038.07
2017-12-02T02:20:35.868Z,1038.09
2017-12-02T02:21:35.864Z,1038.1
2017-12-02T02:22:35.840Z,1038.14
2017-12-02T02:23:35.828Z,1038.12
2017-12-02T02:24:35.820Z,1038.14
2017-12-02T02:25:35.802Z,1038.14
2017-12-02T02:26:35.792Z,1038.17
2017-12-02T02:27:35.776Z,1038.19
2017-12-02T02:28:35.766Z,1038.21
2017-12-02T02:29:35.753Z,1038.21
2017-12-02T02:30:35.740Z,1038.27
2017-12-02T02:31:35.728Z,1038.25
2017-12-02T02:32:35.713Z,1038.3
2017-12-02T02:33:35.697Z,1038.34
2017-12-02T02:34:35.694Z,1038.29
2017-12-02T02:35:35.676Z,1038.3
2017-12-02T02:36:35.662Z,1038.34
2017-12-02T02:37:35.649Z,1038.32
2017-12-02T02:38:35.633Z,1038.35
2017-12-02T02:39:35.621Z,1038.36
2017-12-02T02:40:35.611Z,1038.37
2017-12-02T02:41:35.598Z,1038.42
2017-12-02T02:42:35.581Z,1038.43
2017-12-02T02:43:35.569Z,1038.45
2017-12-02T02:44:35.562Z,1038.43
2017-12-02T02:45:35.542Z,1038.44
2017-12-02T02:46:35.529Z,1038.46
2017-12-02T02:47:35.517Z,1038.41
2017-12-02T02:48:35.504Z,1038.43
2017-12-02T02:49:35.494Z,1038.43
2017-12-02T02:50:35.480Z,1038.44
2017-12-02T02:51:35.467Z,1038.43
2017-12-02T02:52:35.454Z,1038.44
2017-12-02T02:53:35.442Z,1038.43
2017-12-02T02:54:35.425Z,1038.45
2017-12-02T02:55:35.412Z,1038.45
2017-12-02T02:56:35.401Z,1038.46
2017-12-02T02:57:35.389Z,1038.45
2017-12-02T02:58:35.381Z,1038.45
2017-12-02T02:59:35.363Z,1038.47
2017-12-02T03:00:35.350Z,1038.46
2017-12-02T03:01:35.336Z,1038.47
2017-12-02T03:02:35.323Z,1038.47
2017-12-02T03:03:35.310Z,1038.48
2017-12-02T03:04:35.302Z,1038.54
2017-12-02T03:05:35.282Z,1038.56
2017-12-02T03:06:35.271Z,1038.62
2017-12-02T03:07:35.256Z,1038.63
2017-12-02T03:08:35.243Z,1038.66
2017-12-02T03:09:35.236Z,1038.66
2017-12-02T03:10:35.216Z,1038.64
2017-12-02T03:11:35.205Z,1038.63
2017-12-02T03:12:35.191Z,1038.6
2017-12-02T03:13:35.177Z,1038.62
2017-12-02T03:14:35.167Z,1038.59
2017-12-02T03:15:35.152Z,1038.61
2017-12-02T03:16:35.138Z,1038.58
2017-12-02T03:17:35.124Z,1038.6
2017-12-02T03:18:35.112Z,1038.61
2017-12-02T03:19:35.103Z,1038.65
2017-12-02T03:20:35.088Z,1038.68
2017-12-02T03:21:35.080Z,1038.7
2017-12-02T03:22:35.063Z,1038.75
2017-12-02T03:23:35.050Z,1038.75
2017-12-02T03:24:35.036Z,1038.74
2017-12-02T03:25:35.020Z,1038.76
2017-12-02T03:26:35.008Z,1038.79
2017-12-02T03:27:34.999Z,1038.77
2017-12-02T03:28:34.986Z,1038.76
2017-12-02T03:29:34.968Z,1038.78
2017-12-02T03:30:34.957Z,1038.81
2017-12-02T03:31:34.945Z,1038.79
2017-12-02T03:32:34.929Z,1038.83
2017-12-02T03:33:34.919Z,1038.84
2017-12-02T03:34:34.907Z,1038.85
2017-12-02T03:35:34.892Z,1038.84
2017-12-02T03:36:34.879Z,1038.89
2017-12-02T03:37:34.865Z,1038.9
2017-12-02T03:38:34.851Z,1038.9
2017-12-02T03:39:34.839Z,1038.88
2017-12-02T03:40:34.826Z,1038.9
2017-12-02T03:41:34.815Z,1038.89
2017-12-02T03:42:34.802Z,1038.94
2017-12-02T03:43:34.789Z,1038.94
2017-12-02T03:44:34.784Z,1038.99
2017-12-02T03:45:34.761Z,1038.99
2017-12-02T03:46:34.749Z,1039
2017-12-02T03:47:34.734Z,1038.99
2017-12-02T03:48:34.721Z,1038.97
2017-12-02T03:49:34.707Z,1038.97
2017-12-02T03:50:34.697Z,1038.99
2017-12-02T03:51:34.681Z,1038.99
2017-12-02T03:52:34.671Z,1038.97
2017-12-02T03:53:34.657Z,1038.97
2017-12-02T03:54:34.647Z,1038.97
2017-12-02T03:55:34.631Z,1038.99
2017-12-02T03:56:34.615Z,1039
2017-12-02T03:57:34.602Z,1038.99
2017-12-02T03:58:34.590Z,1039
2017-12-02T03:59:34.579Z,1039.01
2017-12-02T04:00:34.562Z,1039.01
2017-12-02T04:01:34.552Z,1039.06
2017-12-02T04:02:34.538Z,1039.08
2017-12-02T04:03:34.532Z,1039.04
2017-12-02T04:04:34.510Z,1039.03
2017-12-02T04:05:34.497Z,1039.05
2017-12-02T04:06:34.484Z,1039.09
2017-12-02T04:07:34.472Z,1039.07
2017-12-02T04:08:34.460Z,1039.11
2017-12-02T04:09:34.446Z,1039.15
2017-12-02T04:10:34.431Z,1039.15
2017-12-02T04:11:34.421Z,1039.11
2017-12-02T04:12:34.408Z,1039.11
2017-12-02T04:13:34.393Z,1039.12
2017-12-02T04:14:34.382Z,1039.14
2017-12-02T04:15:34.367Z,1039.1
2017-12-02T04:16:34.360Z,1039.08
2017-12-02T04:17:34.343Z,1039.13
2017-12-02T04:18:34.330Z,1039.14
2017-12-02T04:19:34.312Z,1039.12
2017-12-02T04:20:34.307Z,1039.13
2017-12-02T04:21:34.291Z,1039.16
2017-12-02T04:22:34.274Z,1039.17
2017-12-02T04:23:34.267Z,1039.19
2017-12-02T04:24:34.249Z,1039.18
2017-12-02T04:25:34.238Z,1039.18
2017-12-02T04:26:34.222Z,1039.19
2017-12-02T04:27:34.222Z,1039.19
2017-12-02T04:28:34.199Z,1039.21
2017-12-02T04:29:34.186Z,1039.22
2017-12-02T04:30:34.172Z,1039.21
2017-12-02T04:31:34.159Z,1039.14
2017-12-02T04:32:34.148Z,1039.19
2017-12-02T04:33:34.133Z,1039.16
2017-12-02T04:34:34.118Z,1039.14
2017-12-02T04:35:34.105Z,1039.14
2017-12-02T04:36:34.092Z,1039.14
2017-12-02T04:37:34.081Z,1039.11
2017-12-02T04:38:34.065Z,1039.17
2017-12-02T04:39:34.054Z,1039.14
2017-12-02T04:40:34.041Z,1039.19
2017-12-02T04:41:34.038Z,1039.17
2017-12-02T04:42:34.015Z,1039.22
2017-12-02T04:43:34.002Z,1039.19
2017-12-02T04:44:33.990Z,1039.16
2017-12-02T04:45:33.978Z,1039.16
2017-12-02T04:46:33.969Z,1039.18
2017-12-02T04:47:33.949Z,1039.19
2017-12-02T04:48:33.936Z,1039.2
2017-12-02T04:49:33.930Z,1039.17
2017-12-02T04:50:33.912Z,1039.17
2017-12-02T04:51:33.900Z,1039.16
2017-12-02T04:52:33.890Z,1039.22
2017-12-02T04:53:33.874Z,1039.25
2017-12-02T04:54:33.862Z,1039.24
2017-12-02T04:55:33.848Z,1039.25
2017-12-02T04:56:33.833Z,1039.24
2017-12-02T04:57:33.820Z,1039.26
2017-12-02T04:58:33.811Z,1039.28
2017-12-02T04:59:33.794Z,1039.28
2017-12-02T05:00:33.781Z,1039.25
2017-12-02T05:01:33.769Z,1039.22
2017-12-02T05:02:33.759Z,1039.28
2017-12-02T05:03:33.746Z,1039.27
2017-12-02T05:04:33.732Z,1039.34
2017-12-02T05:05:33.719Z,1039.33
2017-12-02T05:06:33.717Z,1039.32
2017-12-02T05:07:33.697Z,1039.37
2017-12-02T05:08:33.681Z,1039.37
2017-12-02T05:09:33.668Z,1039.33
2017-12-02T05:10:33.653Z,1039.36
2017-12-02T05:11:33.642Z,1039.35
2017-12-02T05:12:33.626Z,1039.33
2017-12-02T05:13:33.619Z,1039.35
2017-12-02T05:14:33.604Z,1039.32
2017-12-02T05:15:33.592Z,1039.37
2017-12-02T05:16:33.575Z,1039.37
2017-12-02T05:17:33.564Z,1039.39
2017-12-02T05:18:33.552Z,1039.37
2017-12-02T05:19:33.538Z,1039.43
2017-12-02T05:20:33.526Z,1039.4
2017-12-02T05:21:33.513Z,1039.37
2017-12-02T05:22:33.500Z,1039.36
2017-12-02T05:23:33.488Z,1039.35
2017-12-02T05:24:33.474Z,1039.29
2017-12-02T05:25:33.460Z,1039.26
2017-12-02T05:26:33.448Z,1039.26
2017-12-02T05:27:33.435Z,1039.26
2017-12-02T05:28:33.421Z,1039.26
2017-12-02T05:29:33.410Z,1039.24
2017-12-02T05:30:33.398Z,1039.26
2017-12-02T05:31:33.383Z,1039.23
2017-12-02T05:32:33.370Z,1039.22
2017-12-02T05:33:33.355Z,1039.22
2017-12-02T05:34:33.343Z,1039.25
2017-12-02T05:35:33.329Z,1039.24
2017-12-02T05:36:33.321Z,1039.22
2017-12-02T05:37:33.305Z,1039.2
2017-12-02T05:38:33.295Z,1039.21
2017-12-02T05:39:33.281Z,1039.18
2017-12-02T05:40:33.269Z,1039.15
2017-12-02T05:41:33.256Z,1039.21
2017-12-02T05:42:33.240Z,1039.22
2017-12-02T05:43:33.227Z,1039.21
2017-12-02T05:44:33.218Z,1039.28
2017-12-02T05:45:33.202Z,1039.26
2017-12-02T05:46:33.192Z,1039.29
2017-12-02T05:47:33.183Z,1039.33
2017-12-02T05:48:33.163Z,1039.36
2017-12-02T05:49:33.151Z,1039.36
2017-12-02T05:50:33.137Z,1039.39
2017-12-02T05:51:33.130Z,1039.43
2017-12-02T05:52:33.112Z,1039.44
2017-12-02T05:53:33.105Z,1039.46
2017-12-02T05:54:33.093Z,1039.46
2017-12-02T05:55:33.078Z,1039.48
2017-12-02T05:56:33.064Z,1039.48
2017-12-02T05:57:33.050Z,1039.48
2017-12-02T05:58:33.036Z,1039.54
2017-12-02T05:59:33.024Z,1039.5
2017-12-02T06:00:33.014Z,1039.55
2017-12-02T06:01:33.001Z,1039.53
2017-12-02T06:02:32.988Z,1039.54
2017-12-02T06:03:32.973Z,1039.52
2017-12-02T06:04:32.963Z,1039.52
2017-12-02T06:05:32.949Z,1039.51
2017-12-02T06:06:32.937Z,1039.57
2017-12-02T06:07:32.921Z,1039.63
2017-12-02T06:08:32.909Z,1039.63
2017-12-02T06:09:32.896Z,1039.66
2017-12-02T06:10:32.882Z,1039.65
2017-12-02T06:11:32.870Z,1039.68
2017-12-02T06:12:32.858Z,1039.66
2017-12-02T06:13:32.847Z,1039.69
2017-12-02T06:14:32.834Z,1039.68
2017-12-02T06:15:32.820Z,1039.67
2017-12-02T06:16:32.809Z,1039.64
2017-12-02T06:17:32.793Z,1039.64
2017-12-02T06:18:32.782Z,1039.63
2017-12-02T06:19:32.768Z,1039.67
2017-12-02T06:20:32.758Z,1039.68
2017-12-02T06:21:32.744Z,1039.68
2017-12-02T06:22:32.729Z,1039.77
2017-12-02T06:23:32.719Z,1039.81
2017-12-02T06:24:32.706Z,1039.86
2017-12-02T06:25:32.692Z,1039.87
2017-12-02T06:26:32.679Z,1039.83
2017-12-02T06:27:32.667Z,1039.83
2017-12-02T06:28:32.653Z,1039.84
2017-12-02T06:29:32.640Z,1039.83
2017-12-02T06:30:32.627Z,1039.8
2017-12-02T06:31:32.614Z,1039.78
2017-12-02T06:32:32.604Z,1039.81
2017-12-02T06:33:32.589Z,1039.81
2017-12-02T06:34:32.574Z,1039.83
2017-12-02T06:35:32.565Z,1039.83
2017-12-02T06:36:32.550Z,1039.84
2017-12-02T06:37:32.538Z,1039.78
2017-12-02T06:38:32.525Z,1039.82
2017-12-02T06:39:32.511Z,1039.81
2017-12-02T06:40:32.498Z,1039.85
2017-12-02T06:41:32.488Z,1039.86
2017-12-02T06:42:32.482Z,1039.83
2017-12-02T06:43:32.462Z,1039.83
2017-12-02T06:44:32.448Z,1039.84
2017-12-02T06:45:32.438Z,1039.83
2017-12-02T06:46:32.421Z,1039.81
2017-12-02T06:47:32.412Z,1039.81
2017-12-02T06:48:32.399Z,1039.79
2017-12-02T06:49:32.388Z,1039.8
2017-12-02T06:50:32.372Z,1039.83
2017-12-02T06:51:32.359Z,1039.83
2017-12-02T06:52:32.345Z,1039.8
2017-12-02T06:53:32.339Z,1039.81
2017-12-02T06:54:32.321Z,1039.84
2017-12-02T06:55:32.311Z,1039.83
2017-12-02T06:56:32.297Z,1039.81
2017-12-02T06:57:32.282Z,1039.88
2017-12-02T06:58:32.269Z,1039.83
2017-12-02T06:59:32.259Z,1039.81
2017-12-02T07:00:32.243Z,1039.82
2017-12-02T07:01:32.234Z,1039.85
2017-12-02T07:02:32.222Z,1039.86
2017-12-02T07:03:32.208Z,1039.88
2017-12-02T07:04:32.195Z,1039.89
2017-12-02T07:05:32.181Z,1039.88
2017-12-02T07:06:32.170Z,1039.86
2017-12-02T07:07:32.154Z,1039.85
2017-12-02T07:08:32.149Z,1039.85
2017-12-02T07:09:32.132Z,1039.85
2017-12-02T07:10:32.116Z,1039.86
2017-12-02T07:11:32.106Z,1039.89
2017-12-02T07:12:32.094Z,1039.97
2017-12-02T07:13:32.087Z,1039.93
2017-12-02T07:14:32.066Z,1039.98
2017-12-02T07:15:32.056Z,1039.99
2017-12-02T07:16:32.040Z,1039.97
2017-12-02T07:17:32.029Z,1039.98
2017-12-02T07:18:32.014Z,1040.01
2017-12-02T07:19:32.004Z,1039.99
2017-12-02T07:20:31.993Z,1040.04
2017-12-02T07:21:31.981Z,1040.08
2017-12-02T07:22:31.965Z,1040.08
2017-12-02T07:23:31.952Z,1040.1
2017-12-02T07:24:31.943Z,1040.11
2017-12-02T07:25:31.926Z,1040.15
2017-12-02T07:26:31.917Z,1040.17
2017-12-02T07:27:31.905Z,1040.1
2017-12-02T07:28:31.889Z,1040.12
2017-12-02T07:29:31.876Z,1040.06
2017-12-02T07:30:31.872Z,1040.02
2017-12-02T07:31:31.856Z,1039.99
2017-12-02T07:32:31.841Z,1039.96
2017-12-02T07:33:31.829Z,1039.96
2017-12-02T07:34:31.817Z,1039.94
2017-12-02T07:35:31.802Z,1039.94
2017-12-02T07:36:31.792Z,1039.93
2017-12-02T07:37:31.792Z,1039.9
2017-12-02T07:38:31.765Z,1039.9
2017-12-02T07:39:31.755Z,1039.86
2017-12-02T07:40:31.741Z,1039.84
2017-12-02T07:41:31.729Z,1039.87
2017-12-02T07:42:31.715Z,1039.85
2017-12-02T07:43:31.701Z,1039.82
2017-12-02T07:44:31.734Z,1039.79
2017-12-02T07:45:31.679Z,1039.8
2017-12-02T07:46:31.667Z,1039.78
2017-12-02T07:47:31.654Z,1039.73
2017-12-02T07:48:31.642Z,1039.74
2017-12-02T07:49:31.630Z,1039.7
2017-12-02T07:50:31.618Z,1039.69
2017-12-02T07:51:31.606Z,1039.67
2017-12-02T07:52:31.591Z,1039.64
2017-12-02T07:53:31.579Z,1039.59
2017-12-02T07:54:31.568Z,1039.57
2017-12-02T07:55:31.553Z,1039.56
2017-12-02T07:56:31.545Z,1039.57
2017-12-02T07:57:31.536Z,1039.54
2017-12-02T07:58:31.516Z,1039.55
2017-12-02T07:59:31.508Z,1039.5
2017-12-02T08:00:31.496Z,1039.49
2017-12-02T08:01:31.481Z,1039.49
2017-12-02T08:02:31.470Z,1039.46
2017-12-02T08:03:31.458Z,1039.47
2017-12-02T08:04:31.446Z,1039.44
2017-12-02T08:05:31.435Z,1039.48
2017-12-02T08:06:31.424Z,1039.43
2017-12-02T08:07:31.410Z,1039.41
2017-12-02T08:08:31.398Z,1039.32
2017-12-02T08:09:31.385Z,1039.31
2017-12-02T08:10:31.373Z,1039.3
2017-12-02T08:11:31.365Z,1039.35
2017-12-02T08:12:31.351Z,1039.4
2017-12-02T08:13:31.341Z,1039.39
2017-12-02T08:14:31.330Z,1039.36
2017-12-02T08:15:31.315Z,1039.35
2017-12-02T08:16:31.302Z,1039.34
2017-12-02T08:17:31.291Z,1039.36
2017-12-02T08:18:31.324Z,1039.33
2017-12-02T08:19:31.272Z,1039.33
2017-12-02T08:20:31.256Z,1039.33
2017-12-02T08:21:31.246Z,1039.26
2017-12-02T08:22:31.235Z,1039.21
2017-12-02T08:23:31.223Z,1039.19
2017-12-02T08:24:31.212Z,1039.12
2017-12-02T08:25:31.203Z,1039.1
2017-12-02T08:26:31.195Z,1039.08
2017-12-02T08:27:31.179Z,1039.14
2017-12-02T08:28:31.168Z,1039.14
2017-12-02T08:29:31.157Z,1039.18
2017-12-02T08:30:31.145Z,1039.12
2017-12-02T08:31:31.134Z,1039.11
2017-12-02T08:32:31.120Z,1039.11
2017-12-02T08:33:31.111Z,1039.08
2017-12-02T08:34:31.099Z,1039.09
2017-12-02T08:35:31.085Z,1039.02
2017-12-02T08:36:31.077Z,1039.03
2017-12-02T08:37:31.064Z,1039.06
2017-12-02T08:38:31.051Z,1039.05
2017-12-02T08:39:31.043Z,1039.02
2017-12-02T08:40:31.034Z,1038.98
2017-12-02T08:41:31.019Z,1038.97
2017-12-02T08:42:31.009Z,1038.97
2017-12-02T08:43:31.001Z,1038.98
2017-12-02T08:44:30.988Z,1038.96
2017-12-02T08:45:30.973Z,1038.99
2017-12-02T08:46:30.965Z,1039.01
2017-12-02T08:47:30.954Z,1039.06
2017-12-02T08:48:30.944Z,1039.02
2017-12-02T08:49:30.929Z,1039.03
2017-12-02T08:50:30.921Z,1039
2017-12-02T08:51:30.909Z,1039.02
2017-12-02T08:52:30.897Z,1038.98
2017-12-02T08:53:30.886Z,1038.96
2017-12-02T08:54:30.877Z,1038.95
2017-12-02T08:55:30.867Z,1038.87
2017-12-02T08:56:30.854Z,1038.86
2017-12-02T08:57:30.848Z,1038.83
2017-12-02T08:58:30.834Z,1038.79
2017-12-02T08:59:30.824Z,1038.83
2017-12-02T09:00:30.810Z,1038.79
2017-12-02T09:01:30.799Z,1038.79
2017-12-02T09:02:30.789Z,1038.76
2017-12-02T09:03:30.781Z,1038.7
2017-12-02T09:04:30.825Z,1038.72
2017-12-02T09:05:30.760Z,1038.66
2017-12-02T09:06:30.747Z,1038.65
2017-12-02T09:07:30.736Z,1038.7
2017-12-02T09:08:30.728Z,1038.67
2017-12-02T09:09:30.718Z,1038.66
2017-12-02T09:10:30.707Z,1038.68
2017-12-02T09:11:30.693Z,1038.68
2017-12-02T09:12:30.687Z,1038.69
2017-12-02T09:13:30.676Z,1038.76
2017-12-02T09:14:30.666Z,1038.77
2017-12-02T09:15:30.653Z,1038.75
2017-12-02T09:16:30.643Z,1038.78
2017-12-02T09:17:30.632Z,1038.79
2017-12-02T09:18:30.621Z,1038.77
2017-12-02T09:19:30.614Z,1038.76
2017-12-02T09:20:30.601Z,1038.77
2017-12-02T09:21:30.591Z,1038.76
2017-12-02T09:22:30.582Z,1038.79
2017-12-02T09:23:30.573Z,1038.85
2017-12-02T09:24:30.563Z,1038.9
2017-12-02T09:25:30.553Z,1038.95
2017-12-02T09:26:30.540Z,1038.97
2017-12-02T09:27:30.533Z,1038.97
2017-12-02T09:28:30.533Z,1038.98
2017-12-02T09:29:30.511Z,1039
2017-12-02T09:30:30.501Z,1038.95
2017-12-02T09:31:30.489Z,1038.96
2017-12-02T09:32:30.478Z,1038.94
2017-12-02T09:33:30.479Z,1038.96
2017-12-02T09:34:30.460Z,1038.96
2017-12-02T09:35:30.448Z,1038.96
2017-12-02T09:36:30.440Z,1038.97
2017-12-02T09:37:30.429Z,1038.98
2017-12-02T09:38:30.416Z,1038.98
2017-12-02T09:39:30.410Z,1038.97
2017-12-02T09:40:30.399Z,1038.98
2017-12-02T09:41:30.386Z,1039.01
2017-12-02T09:42:30.375Z,1038.98
2017-12-02T09:43:30.369Z,1039.05
2017-12-02T09:44:30.355Z,1039.06
2017-12-02T09:45:30.348Z,1039.05
2017-12-02T09:46:30.337Z,1039.06
2017-12-02T09:47:30.324Z,1039.04
2017-12-02T09:48:30.315Z,1039.04
2017-12-02T09:49:30.310Z,1039.05
2017-12-02T09:50:30.293Z,1039
2017-12-02T09:51:30.282Z,1038.99
2017-12-02T09:52:30.274Z,1038.93
2017-12-02T09:53:30.263Z,1038.88
2017-12-02T09:54:30.256Z,1038.86
2017-12-02T09:55:30.249Z,1038.88
2017-12-02T09:56:30.232Z,1038.85
2017-12-02T09:57:30.223Z,1038.82
2017-12-02T09:58:30.214Z,1038.81
2017-12-02T09:59:30.206Z,1038.77
2017-12-02T10:00:30.195Z,1038.77
2017-12-02T10:01:30.185Z,1038.83
2017-12-02T10:02:30.174Z,1038.81
2017-12-02T10:03:30.165Z,1038.83
2017-12-02T10:04:30.154Z,1038.81
2017-12-02T10:05:30.142Z,1038.78
2017-12-02T10:06:30.135Z,1038.8
2017-12-02T10:07:30.121Z,1038.78
2017-12-02T10:08:30.114Z,1038.84
2017-12-02T10:09:30.111Z,1038.83
2017-12-02T10:10:30.102Z,1038.84
2017-12-02T10:11:30.080Z,1038.84
2017-12-02T10:12:30.073Z,1038.85
2017-12-02T10:13:30.061Z,1038.84
2017-12-02T10:14:30.053Z,1038.84
2017-12-02T10:15:30.041Z,1038.82
2017-12-02T10:16:30.032Z,1038.83
2017-12-02T10:17:30.023Z,1038.82
2017-12-02T10:18:30.013Z,1038.84
2017-12-02T10:19:30.002Z,1038.81
2017-12-02T10:20:29.992Z,1038.83
2017-12-02T10:21:29.982Z,1038.84
2017-12-02T10:22:29.973Z,1038.84
2017-12-02T10:23:29.960Z,1038.85
2017-12-02T10:24:29.952Z,1038.85
2017-12-02T10:25:29.942Z,1038.86
2017-12-02T10:26:29.932Z,1038.85
2017-12-02T10:27:29.923Z,1038.85
2017-12-02T10:28:29.920Z,1038.82
2017-12-02T10:29:29.900Z,1038.83
2017-12-02T10:30:29.892Z,1038.84
2017-12-02T10:31:29.881Z,1038.84
2017-12-02T10:32:29.869Z,1038.84
2017-12-02T10:33:29.864Z,1038.89
2017-12-02T10:34:29.852Z,1038.97
2017-12-02T10:35:29.838Z,1039.01
2017-12-02T10:36:29.838Z,1039.05
2017-12-02T10:37:29.819Z,1039.1
2017-12-02T10:38:29.808Z,1039.17
2017-12-02T10:39:29.798Z,1039.14
2017-12-02T10:40:29.790Z,1039.2
2017-12-02T10:41:29.780Z,1039.17
2017-12-02T10:42:29.766Z,1039.14
2017-12-02T10:43:29.763Z,1039.2
2017-12-02T10:44:29.750Z,1039.22
2017-12-02T10:45:29.737Z,1039.2
2017-12-02T10:46:29.730Z,1039.26
2017-12-02T10:47:29.715Z,1039.32
2017-12-02T10:48:29.708Z,1039.35
2017-12-02T10:49:29.698Z,1039.42
2017-12-02T10:50:29.687Z,1039.47
2017-12-02T10:51:29.677Z,1039.51
2017-12-02T10:52:29.666Z,1039.52
2017-12-02T10:53:29.654Z,1039.6
2017-12-02T10:54:29.645Z,1039.63
2017-12-02T10:55:29.631Z,1039.65
2017-12-02T10:56:29.621Z,1039.67
2017-12-02T10:57:29.610Z,1039.7
2017-12-02T10:58:29.614Z,1039.67
2017-12-02T10:59:29.591Z,1039.69
2017-12-02T11:00:29.586Z,1039.72
2017-12-02T11:01:29.567Z,1039.7
2017-12-02T11:02:29.556Z,1039.7
2017-12-02T11:03:29.553Z,1039.69
2017-12-02T11:04:29.534Z,1039.68
2017-12-02T11:05:29.526Z,1039.68
2017-12-02T11:06:29.520Z,1039.66
2017-12-02T11:07:29.503Z,1039.71
2017-12-02T11:08:29.490Z,1039.72
2017-12-02T11:09:29.483Z,1039.73
2017-12-02T11:10:29.469Z,1039.7
2017-12-02T11:11:29.459Z,1039.67
2017-12-02T11:12:29.448Z,1039.59
2017-12-02T11:13:29.437Z,1039.58
2017-12-02T11:14:29.426Z,1039.5
2017-12-02T11:15:29.414Z,1039.5
2017-12-02T11:16:29.407Z,1039.41
2017-12-02T11:17:29.392Z,1039.35
2017-12-02T11:18:29.382Z,1039.4
2017-12-02T11:19:29.377Z,1039.36
2017-12-02T11:20:29.361Z,1039.41
2017-12-02T11:21:29.352Z,1039.42
2017-12-02T11:22:29.350Z,1039.43
2017-12-02T11:23:29.329Z,1039.44
2017-12-02T11:24:29.336Z,1039.43
2017-12-02T11:25:29.321Z,1039.44
2017-12-02T11:26:29.294Z,1039.44
2017-12-02T11:27:29.288Z,1039.45
2017-12-02T11:28:29.330Z,1039.42
2017-12-02T11:29:29.266Z,1039.42
2017-12-02T11:30:29.251Z,1039.45
2017-12-02T11:31:29.240Z,1039.44
2017-12-02T11:32:29.230Z,1039.45
2017-12-02T11:33:29.226Z,1039.46
2017-12-02T11:34:29.211Z,1039.43
2017-12-02T11:35:29.202Z,1039.43
2017-12-02T11:36:29.191Z,1039.43
2017-12-02T11:37:29.195Z,1039.45
2017-12-02T11:38:29.168Z,1039.41
2017-12-02T11:39:29.158Z,1039.39
2017-12-02T11:40:29.149Z,1039.44
2017-12-02T11:41:29.133Z,1039.46
2017-12-02T11:42:29.160Z,1039.43
2017-12-02T11:43:29.115Z,1039.42
2017-12-02T11:44:29.116Z,1039.37
2017-12-02T11:45:29.092Z,1039.36
2017-12-02T11:46:29.082Z,1039.3
2017-12-02T11:47:29.072Z,1039.31
2017-12-02T11:48:29.060Z,1039.29
2017-12-02T11:49:29.048Z,1039.3
2017-12-02T11:50:29.041Z,1039.3
2017-12-02T11:51:29.033Z,1039.25
2017-12-02T11:52:29.020Z,1039.24
2017-12-02T11:53:29.022Z,1039.28
2017-12-02T11:54:29.012Z,1039.29
2017-12-02T11:55:28.983Z,1039.34
2017-12-02T11:56:28.974Z,1039.34
2017-12-02T11:57:28.968Z,1039.37
2017-12-02T11:58:28.951Z,1039.41
2017-12-02T11:59:28.943Z,1039.38
2017-12-02T12:00:28.931Z,1039.39
2017-12-02T12:01:28.919Z,1039.4
2017-12-02T12:02:28.909Z,1039.41
2017-12-02T12:03:28.897Z,1039.42
2017-12-02T12:04:28.889Z,1039.44
2017-12-02T12:05:28.879Z,1039.48
2017-12-02T12:06:28.867Z,1039.5
2017-12-02T12:07:28.853Z,1039.5
2017-12-02T12:08:28.844Z,1039.49